In Rescue
 
Open Full Screen Window  High Contrast Mode
Wind Gusting 19 knots
14
May 25, 2022 8:56 PM CDT
Weather Information
Wind Direction
  010 °
Wind Speed
  14 kt (16 mph)
Wind Gust
  19 kt (22 mph)
Altimeter
29.81 in
Visibility
---
Temperature
10° C
50° F
Dewpoint
09° C
48° F
Humidity
94%
1hr Rain Fall
00.01 in.
24hr Rain Fall
00.36 in.
Sky Condition
Missing

METAR KACQ 260156Z AUTO 01014G19KT 10/09 A2981 RMK AO2 PWINO P0001

FAA Disclaimer: The data displayed is for advisory purposes only and is not to be used for flight planning or operations.
Missing Cloud Data